Terminal Aerodrome Forecast
Issued by NWS

Home | Current Version | Previous Version | Text Only | Print | Product List | Glossary On
Versions: 1 2 3 4 5 6 7 8 9 10 11 12
135
FTUS46 KSTO 300529
TAFSAC
TAF
KSAC 300529Z 3006/3106 21006KT P6SM BKN150
     FM300900 21008KT P6SM VCSH OVC080
     FM301200 27011KT P6SM BKN050
     FM301600 32017G26KT P6SM SKC
     FM310300 32010KT P6SM SKC=

USA.gov is the U.S. government's official web portal to all federal, state and local government web resources and services.